Aérodrome :
LOGIN :

S'inscrire | Disclaimer

   EN    FR    IT 

 










Légende :    VFR   VFR Marginal   IFR   IFR Intensif   IFR Très Intensif
Visi : 
Plafond : 
>= 8 km
>= 3000ft
5 à 8 km
1000 à 3000 ft
1500m à 5 km
500 à 1000 ft
800 à 1500m
200 à 500 ft
< 800m
< 200 ft
Symboles :   Orages  Brouillard  Fortes neiges  Fortes précipitations  Vent > 20 kt
SIGMETs :   Divers  Orages  Givrage  Turbulence  Onde Orograph.  Cendres Volcan.






- Altitude de l'aérodrome : 512 ft
- Code IATA : URO


LFOP - Rouen Vallée de Seine

DERNIER METAR :
  • 240130Z AUTO 08004KT 050V120 3800 BR OVC003 01/00 Q1024

METARs EXPIRÉS :
  • 240100Z AUTO 06004KT 3700 BR OVC003 01/00 Q1024
  • 240030Z AUTO 08003KT 3900 BR OVC004 01/00 Q1024
  • 240000Z AUTO 10004KT 060V130 4400 BR OVC004 01/00 Q1025
  • 232330Z AUTO 12005KT 4600 BR OVC005 01/00 Q1025
  • 232300Z AUTO 13005KT 4800 BR OVC005 01/00 Q1025

TAF TAF LFOP
Valide du 23 à 18h jusqu'au 24 à 18h UTC


231700Z 2318/2418 07008KT 4000 BR OVC003
BECMG 2318/2321 2000
PROB30
TEMPO 2322/2409 0500 FZFG VV///
BECMG 2410/2413 7000 NSW OVC007
PROB30 2413/2416 SCT007
ATIS : +33 2 35 80 80 34
Météo : +33 2 32 86 52 80



MET'MAP, la Météo Aéronautique d'un coup d'oeil ! - Copyright ORBIFLY Décembre 2007 - Disclaimer

ORBIFLY MET'MAP TEAM :

Programmation & Développement : Alexandra Zaïnal
Sur une idée originale de : Baudouin d'Aumeries
Assistance à la programmation : Marc-Olivier Méhu
Soutien technique & logistique : Manuel Goepfert

Contact : metmap@orbifly.com




SOURCES & CREDITS :

   NOAA